Latest Weather Observations for Avalon

IDV60801

Issued at 5:22 pm EST Thursday 30 May 2024 (issued every 10 minutes, with the page automatically refreshed every 10 minutes)

About weather observations | Map of weather stations | Latest weather observations for VIC | Other Formats
Station Details ID: 087113 Name: AVALON AIRPORT Lat: -38.03 Lon: 144.48 Height: 10.6 m
Data from the previous 72 hours. | See also: Recent months at Avalon
Date/Time
EST
Temp
°C
App
Temp
°C
Dew
Point
°C
Rel
Hum
%
Delta-T
°C
Wind Press
QNH
hPa
Press
MSL
hPa
Rain since
9am
mm
Dir  Spd
km/h
Gust
km/h
Spd
kts
Gust
kts
30/05:00pm 17.1 14.1 11.8 71 2.9 N 19 28 10 15 1008.3 1008.3 0.0
30/04:30pm 18.0 12.3 11.1 64 3.7 N 32 46 17 25 1008.5 1008.5 0.0
30/04:05pm 18.4 11.7 11.0 62 4.0 NNW 37 56 20 30 1009.0 1009.0 0.0
30/04:00pm 18.6 11.5 10.9 61 4.2 NNW 39 52 21 28 1009.0 1009.0 0.0
30/03:36pm 19.2 11.1 9.9 55 5.0 NNW 43 61 23 33 1009.0 1009.0 0.0
30/03:30pm 19.5 10.8 10.0 54 5.1 NNW 46 61 25 33 1008.8 1008.8 0.0
30/03:00pm 20.5 13.7 9.4 49 5.9 NNW 35 59 19 32 1008.4 1008.4 0.0
30/02:58pm 20.4 14.0 9.3 49 5.9 NNW 33 54 18 29 1008.5 1008.5 0.0
30/02:30pm 19.6 13.6 10.0 54 5.1 N 32 44 17 24 1008.6 1008.6 0.0
30/02:00pm 20.4 12.9 9.3 49 5.9 N 39 56 21 30 1008.5 1008.5 0.0
30/01:30pm 19.9 12.4 9.5 51 5.5 N 39 57 21 31 1009.0 1009.0 0.0
30/01:23pm 19.8 12.7 9.4 51 5.5 N 37 57 20 31 1009.2 1009.2 0.0
30/01:00pm 19.5 12.0 9.4 52 5.4 N 39 48 21 26 1009.6 1009.6 0.0
30/12:37pm 19.1 11.9 9.3 53 5.2 N 37 56 20 30 1010.1 1010.1 0.0
30/12:30pm 18.9 11.8 9.4 54 5.0 N 37 54 20 29 1010.3 1010.3 0.0
30/12:06pm 18.8 11.7 9.6 55 4.9 N 37 57 20 31 1011.1 1011.1 0.0
30/12:00pm 18.7 11.6 9.5 55 4.9 N 37 52 20 28 1011.4 1011.4 0.0
30/11:30am 18.4 10.5 9.5 56 4.7 N 41 54 22 29 1012.0 1012.0 0.0
30/11:00am 18.1 10.2 9.5 57 4.5 N 41 57 22 31 1012.3 1012.3 0.0
30/10:30am 18.1 9.8 9.5 57 4.5 N 43 63 23 34 1013.1 1013.1 0.0
30/10:27am 18.2 9.8 9.5 57 4.6 N 44 63 24 34 1013.1 1013.1 0.0
30/10:00am 18.3 8.7 9.6 57 4.6 N 50 63 27 34 1012.8 1012.8 0.0
30/09:30am 17.3 11.1 9.5 60 4.1 N 32 52 17 28 1012.9 1012.9 0.0
30/09:28am 17.1 10.9 9.5 61 4.0 N 32 50 17 27 1013.0 1013.0 0.0
30/09:00am 16.3 10.8 9.0 62 3.8 N 28 39 15 21 1013.5 1013.5 0.0
30/08:44am 16.7 10.9 9.4 62 3.8 N 30 48 16 26 1013.8 1013.8 0.0
30/08:30am 16.1 10.2 9.1 63 3.6 N 30 39 16 21 1014.2 1014.2 0.0
30/08:00am 15.5 11.5 9.2 66 3.2 N 20 28 11 15 1014.4 1014.4 0.0
30/07:30am 14.7 10.7 8.9 68 2.9 NNE 20 28 11 15 1014.9 1014.9 0.0
30/07:00am 14.4 9.6 8.8 69 2.8 NNE 24 33 13 18 1015.1 1015.1 0.0
30/06:30am 14.1 9.3 8.7 70 2.7 NNE 24 33 13 18 1015.3 1015.3 0.0
30/06:00am 13.9 9.0 8.3 69 2.8 NNE 24 30 13 16 1015.6 1015.6 0.0
30/05:30am 14.6 8.8 7.9 64 3.3 NNE 28 35 15 19 1015.6 1015.6 0.0
30/05:00am 16.3 9.6 8.3 59 4.1 N 33 46 18 25 1015.5 1015.5 0.0
30/04:30am 15.5 10.1 7.8 60 3.8 NNE 26 35 14 19 1015.3 1015.3 0.0
30/04:00am 16.2 9.6 7.9 58 4.2 N 32 41 17 22 1015.4 1015.4 0.0
30/03:30am 16.4 10.6 8.1 58 4.2 N 28 37 15 20 1015.5 1015.5 0.0
30/03:00am 15.8 12.4 7.8 59 4.0 N 15 24 8 13 1015.8 1015.8 0.0
30/02:30am 15.4 13.5 7.4 59 4.0 NE 7 15 4 8 1016.2 1016.2 0.0
30/02:00am 15.8 13.6 7.8 59 4.0 ENE 9 13 5 7 1016.3 1016.3 0.0
30/01:30am 15.5 12.5 7.8 60 3.8 ENE 13 20 7 11 1016.6 1016.6 0.0
30/01:00am 13.8 11.4 7.1 64 3.3 ESE 9 11 5 6 1016.9 1016.9 0.0
30/12:30am 15.1 12.3 6.9 58 4.0 ENE 11 15 6 8 1017.4 1017.4 0.0
30/12:00am 15.1 11.4 6.1 55 4.3 NNE 15 20 8 11 1018.0 1018.0 0.0
 
Date/Time
EST
Temp
°C
App
Temp
°C
Dew
Point
°C
Rel
Hum
%
Delta-T
°C
Wind Press
QNH
hPa
Press
MSL
hPa
Rain since
9am
mm
Dir  Spd
km/h
Gust
km/h
Spd
kts
Gust
kts
29/11:30pm 15.2 10.5 6.2 55 4.3 N 20 24 11 13 1018.3 1018.3 0.0
29/11:00pm 14.3 10.2 6.2 58 3.9 NNE 17 24 9 13 1018.5 1018.5 0.0
29/10:30pm 13.2 9.7 5.6 60 3.6 NE 13 15 7 8 1018.7 1018.7 0.0
29/10:00pm 14.5 10.3 5.8 56 4.1 NE 17 22 9 12 1018.7 1018.7 0.0
29/09:30pm 13.8 9.7 6.2 60 3.6 NNE 17 22 9 12 1018.9 1018.9 0.0
29/09:00pm 14.2 10.5 6.3 59 3.8 NNE 15 20 8 11 1019.1 1019.1 0.0
29/08:30pm 12.0 9.2 5.0 62 3.2 N 9 11 5 6 1019.5 1019.5 0.0
29/08:00pm 11.1 7.5 5.0 66 2.8 N 13 17 7 9 1019.6 1019.6 0.0
29/07:30pm 13.6 9.7 5.3 57 3.9 NNE 15 20 8 11 1019.4 1019.4 0.0
29/07:00pm 13.7 9.5 5.6 58 3.8 NNE 17 19 9 10 1019.6 1019.6 0.0
29/06:30pm 14.9 10.7 5.7 54 4.4 NNE 17 22 9 12 1019.9 1019.9 0.0
29/06:00pm 15.3 10.7 5.8 53 4.5 NNE 19 24 10 13 1020.0 1020.0 0.0
29/05:30pm 16.3 11.6 6.2 51 4.9 N 20 32 11 17 1020.0 1020.0 0.0
29/05:00pm 16.3 12.3 4.7 46 5.5 N 15 20 8 11 1020.0 1020.0 0.0
29/04:30pm 18.1 12.7 4.3 40 6.5 NNE 22 32 12 17 1019.8 1019.8 0.0
29/04:00pm 19.0 12.3 3.6 36 7.2 N 28 39 15 21 1019.8 1019.8 0.0
29/03:30pm 20.1 14.2 3.8 34 7.8 NNE 24 32 13 17 1019.8 1019.8 0.0
29/03:00pm 20.5 13.9 4.1 34 7.9 NNE 28 35 15 19 1019.7 1019.7 0.0
29/02:30pm 20.7 14.7 3.4 32 8.2 NNE 24 32 13 17 1019.7 1019.7 0.0
29/02:00pm 20.9 14.6 3.6 32 8.2 N 26 35 14 19 1020.1 1020.1 0.0
29/01:30pm 20.4 13.6 3.2 32 8.1 N 28 37 15 20 1020.4 1020.4 0.0
29/01:00pm 19.8 13.5 3.9 35 7.6 NNE 26 35 14 19 1020.9 1020.9 0.0
29/12:30pm 19.7 13.8 3.8 35 7.6 N 24 33 13 18 1021.4 1021.4 0.0
29/12:00pm 19.1 12.9 4.1 37 7.1 N 26 33 14 18 1022.1 1022.1 0.0
29/11:30am 18.7 13.3 4.5 39 6.8 N 22 28 12 15 1022.8 1022.8 0.0
29/11:00am 16.7 14.0 5.6 48 5.3 NE 9 20 5 11 1023.5 1023.5 0.0
29/10:30am 13.9 11.5 7.2 64 3.3 NE 9 13 5 7 1024.0 1024.0 0.0
29/10:00am 12.1 9.9 6.4 68 2.7 NNE 7 9 4 5 1024.3 1024.3 0.0
29/09:30am 9.4 8.5 6.1 80 1.5 CALM 0 0 0 0 1024.3 1024.3 0.0
29/09:00am 6.4 4.1 4.9 90 0.6 NW 6 7 3 4 1024.5 1024.5 0.0
29/08:30am 4.3 2.5 3.3 93 0.4 NNW 2 9 1 5 1024.4 1024.4 0.0
29/08:00am 2.8 1.1 1.9 94 0.3 CALM 0 0 0 0 1024.3 1024.3 0.0
29/07:30am 2.2 0.0 1.3 94 0.3 SW 2 7 1 4 1024.2 1024.2 0.0
29/07:00am 2.1 -0.5 1.2 94 0.3 NNW 4 7 2 4 1024.1 1024.1 0.0
29/06:30am 2.0 0.2 1.1 94 0.3 CALM 0 0 0 0 1024.1 1024.1 0.0
29/06:00am 0.4 -2.5 -0.9 91 0.5 WSW 4 9 2 5 1024.1 1024.1 0.0
29/05:30am 2.6 0.9 1.6 93 0.4 CALM 0 6 0 3 1024.0 1024.0 0.0
29/05:00am 2.9 0.5 1.9 93 0.4 N 4 9 2 5 1024.1 1024.1 0.0
29/04:30am 2.7 0.2 1.8 94 0.3 NNW 4 9 2 5 1024.1 1024.1 0.0
29/04:00am 2.6 0.8 1.1 90 0.6 CALM 0 0 0 0 1024.1 1024.1 0.0
29/03:30am 2.7 0.8 0.8 87 0.7 CALM 0 0 0 0 1024.1 1024.1 0.0
29/03:00am 3.7 0.4 0.4 79 1.2 NNE 7 13 4 7 1024.5 1024.5 0.0
29/02:30am 3.3 1.6 2.0 91 0.5 CALM 0 0 0 0 1024.6 1024.6 0.0
29/02:00am 2.9 1.1 1.0 87 0.7 CALM 0 0 0 0 1024.7 1024.7 0.0
29/01:30am 4.1 2.4 2.0 86 0.8 CALM 0 0 0 0 1024.7 1024.7 0.0
29/01:00am 4.5 2.9 2.4 86 0.8 CALM 0 0 0 0 1024.8 1024.8 0.0
29/12:30am 5.7 2.9 3.4 85 1.0 ENE 7 9 4 5 1025.0 1025.0 0.0
29/12:00am 5.3 3.8 3.2 86 0.9 CALM 0 0 0 0 1025.2 1025.2 0.0
 
Date/Time
EST
Temp
°C
App
Temp
°C
Dew
Point
°C
Rel
Hum
%
Delta-T
°C
Wind Press
QNH
hPa
Press
MSL
hPa
Rain since
9am
mm
Dir  Spd
km/h
Gust
km/h
Spd
kts
Gust
kts
28/11:30pm 5.6 2.9 2.4 80 1.3 NW 6 7 3 4 1025.2 1025.2 0.0
28/11:00pm 8.3 4.9 3.9 74 1.9 N 11 13 6 7 1025.3 1025.3 0.0
28/10:30pm 8.7 5.8 4.5 75 1.9 N 9 11 5 6 1025.3 1025.3 0.0
28/10:00pm 8.7 5.4 4.5 75 1.8 NNE 11 13 6 7 1025.4 1025.4 0.0
28/09:30pm 8.6 5.4 3.2 69 2.3 NNE 9 13 5 7 1025.5 1025.5 0.0
28/09:00pm 9.1 6.6 4.5 73 2.0 N 7 11 4 6 1025.7 1025.7 0.0
28/08:30pm 9.6 6.7 4.8 72 2.1 NE 9 11 5 6 1025.6 1025.6 0.0
28/08:00pm 10.0 7.6 4.4 68 2.5 NE 6 11 3 6 1025.6 1025.6 0.0
28/07:30pm 11.2 8.8 4.4 63 3.1 NW 6 7 3 4 1025.3 1025.3 0.0
28/07:00pm 12.4 9.6 5.1 61 3.3 NNW 9 11 5 6 1024.9 1024.9 0.0
28/06:30pm 13.0 9.9 5.4 60 3.5 NNW 11 13 6 7 1024.8 1024.8 0.0
28/06:00pm 14.1 11.5 6.0 58 3.8 N 9 13 5 7 1024.6 1024.6 0.0
28/05:30pm 14.8 11.8 5.9 55 4.3 N 11 13 6 7 1024.5 1024.5 0.0
28/05:00pm 17.1 14.2 6.3 49 5.3 N 11 13 6 7 1024.4 1024.4 0.0
28/04:30pm 19.7 16.4 6.4 42 6.7 N 13 17 7 9 1024.6 1024.6 0.0
28/04:00pm 20.8 17.9 6.7 40 7.1 NE 11 19 6 10 1024.5 1024.5 0.0
28/03:30pm 20.1 18.0 9.9 52 5.5 E 11 13 6 7 1024.6 1024.6 0.0
28/03:00pm 20.6 17.9 8.9 47 6.1 ESE 13 17 7 9 1024.6 1024.6 0.0
28/02:30pm 20.9 18.0 8.2 44 6.6 ESE 13 17 7 9 1024.7 1024.7 0.0
28/02:00pm 20.7 18.3 8.7 46 6.3 SE 11 15 6 8 1024.7 1024.7 0.0
28/01:30pm 20.2 18.0 9.2 49 5.8 SE 11 13 6 7 1025.0 1025.0 0.0
28/01:00pm 20.1 18.3 9.4 50 5.7 SE 9 11 5 6 1025.2 1025.2 0.0
28/12:30pm 19.5 17.7 9.4 52 5.3 ESE 9 15 5 8 1025.6 1025.6 0.0
28/12:00pm 18.6 17.3 9.9 57 4.6 SE 7 13 4 7 1025.9 1025.9 0.0
28/11:30am 16.7 14.8 9.1 61 3.9 SE 9 13 5 7 1026.4 1026.4 0.0
28/11:00am 16.4 14.7 8.4 59 4.0 E 7 9 4 5 1026.8 1026.8 0.0
28/10:30am 14.7 13.0 7.5 62 3.6 ESE 6 9 3 5 1026.8 1026.8 0.0
28/10:00am 13.3 11.3 7.3 67 2.9 SE 7 11 4 6 1026.8 1026.8 0.0
28/09:30am 11.5 8.9 6.2 70 2.5 E 9 11 5 6 1026.8 1026.8 0.0
28/09:00am 9.7 6.9 5.1 73 2.1 ENE 9 13 5 7 1026.8 1026.8 0.0
28/08:30am 7.2 6.1 5.2 87 0.9 CALM 0 0 0 0 1026.6 1026.6 0.0
28/08:00am 5.4 4.0 3.6 88 0.7 CALM 0 0 0 0 1026.5 1026.5 0.0
28/07:30am 5.8 4.4 3.8 87 0.8 CALM 0 0 0 0 1026.3 1026.3 0.0
28/07:00am 5.2 3.8 3.5 89 0.7 CALM 0 0 0 0 1026.1 1026.1 0.0
28/06:30am 4.0 1.1 1.7 85 0.9 W 6 9 3 5 1026.0 1026.0 0.0
28/06:00am 5.9 3.8 3.7 86 0.9 E 4 7 2 4 1025.7 1025.7 0.0
28/05:30am 5.0 2.3 3.7 91 0.5 ESE 7 11 4 6 1025.6 1025.6 0.0
28/05:00am 5.2 3.3 2.7 84 1.0 ENE 2 6 1 3 1025.3 1025.3 0.0
28/04:30am 5.7 4.4 3.9 88 0.8 CALM 0 0 0 0 1025.4 1025.4 0.0
28/04:00am 4.6 2.3 2.9 89 0.7 ESE 4 9 2 5 1025.5 1025.5 0.0
28/03:30am 5.0 3.1 3.0 87 0.8 ESE 2 9 1 5 1025.6 1025.6 0.0
28/03:00am 5.3 2.4 2.8 84 1.0 E 7 9 4 5 1025.5 1025.5 0.0
28/02:30am 5.9 3.1 3.2 83 1.1 ESE 7 9 4 5 1025.6 1025.6 0.0
28/02:00am 6.6 2.7 3.4 80 1.3 NNW 13 15 7 8 1025.5 1025.5 0.0
28/01:30am 6.3 3.7 3.1 80 1.3 WNW 6 11 3 6 1025.9 1025.9 0.0
28/01:00am 6.0 4.7 4.2 88 0.8 CALM 0 0 0 0 1025.9 1025.9 0.0
28/12:30am 6.2 4.9 3.9 85 1.0 CALM 0 0 0 0 1025.8 1025.8 0.0
28/12:00am 7.4 6.2 4.5 82 1.3 CALM 0 0 0 0 1025.8 1025.8 0.0
 
Date/Time
EST
Temp
°C
App
Temp
°C
Dew
Point
°C
Rel
Hum
%
Delta-T
°C
Wind Press
QNH
hPa
Press
MSL
hPa
Rain since
9am
mm
Dir  Spd
km/h
Gust
km/h
Spd
kts
Gust
kts
27/11:30pm 7.3 6.1 4.4 82 1.3 CALM 0 0 0 0 1025.8 1025.8 0.0
27/11:00pm 7.2 4.8 4.3 82 1.2 SSE 6 6 3 3 1025.6 1025.6 0.0
27/10:30pm 6.9 4.2 3.9 81 1.3 S 7 9 4 5 1025.7 1025.7 0.0
27/10:00pm 8.4 6.4 4.2 75 1.8 NNW 4 7 2 4 1025.6 1025.6 0.0
27/09:30pm 10.7 8.2 4.6 66 2.7 N 7 11 4 6 1025.5 1025.5 0.0
27/09:00pm 11.7 7.4 5.1 64 3.0 NW 17 19 9 10 1025.5 1025.5 0.0
27/08:30pm 11.7 7.8 5.3 65 2.9 NW 15 17 8 9 1025.5 1025.5 0.0
27/08:00pm 9.8 5.5 5.2 73 2.1 NW 17 19 9 10 1025.3 1025.3 0.0
27/07:30pm 9.9 5.9 5.1 72 2.2 NNW 15 17 8 9 1025.0 1025.0 0.0
27/07:00pm 12.3 9.4 6.4 67 2.8 N 11 13 6 7 1024.8 1024.8 0.0
27/06:30pm 10.3 7.7 6.3 76 1.9 SW 9 19 5 10 1024.8 1024.8 0.0
27/06:00pm 12.2 10.7 6.9 70 2.5 NNE 4 7 2 4 1024.6 1024.6 0.0
27/05:30pm 13.0 10.0 7.9 71 2.5 NE 13 13 7 7 1024.4 1024.4 0.0

Other formats

Comma delimited format used in spreadsheet applications
http://www.bom.gov.au/fwo/IDV60801/IDV60801.94854.axf

JavaScript Object Notation format (JSON) in row-major order
http://www.bom.gov.au/fwo/IDV60801/IDV60801.94854.json

Data quality

Most of these data are generated automatically and are frequently updated. Quality checks on data are not normally performed. It is possible for incorrect values to appear. Refer to information at About Latest Weather Observations and please check the disclaimer before using these data.